createdAt,value
2022-09-05T00:00:11.965Z,24.40
2022-09-05T00:03:32.257Z,24.40
2022-09-05T00:06:39.751Z,24.40
2022-09-05T00:09:56.909Z,24.40
2022-09-05T00:13:07.717Z,24.40
2022-09-05T00:16:19.130Z,24.40
2022-09-05T00:24:22.526Z,24.40
2022-09-05T00:24:36.683Z,24.40
2022-09-05T00:27:19.882Z,24.40
2022-09-05T00:31:50.494Z,24.40
2022-09-05T00:33:50.668Z,24.40
2022-09-05T00:36:55.248Z,24.40
2022-09-05T00:40:25.939Z,24.40
2022-09-05T00:43:33.005Z,24.40
2022-09-05T00:46:46.751Z,24.40
2022-09-05T00:50:00.222Z,24.40
2022-09-05T00:53:11.522Z,24.30
2022-09-05T00:56:41.189Z,24.40
2022-09-05T01:00:14.952Z,24.30
2022-09-05T01:03:34.759Z,24.40
2022-09-05T01:07:13.285Z,24.30
2022-09-05T01:10:33.809Z,24.30
2022-09-05T01:13:54.081Z,24.30
2022-09-05T01:17:17.835Z,24.30
2022-09-05T01:20:40.523Z,24.30
2022-09-05T01:23:57.838Z,24.30
2022-09-05T01:26:59.937Z,24.30
2022-09-05T01:30:04.910Z,24.30
2022-09-05T01:33:26.130Z,24.30
2022-09-05T01:36:50.185Z,24.30
2022-09-05T01:40:19.773Z,24.30
2022-09-05T01:43:46.987Z,24.30
2022-09-05T01:47:07.101Z,24.30
2022-09-05T01:50:20.973Z,24.30
2022-09-05T01:53:44.845Z,24.30
2022-09-05T01:57:08.176Z,24.30
2022-09-05T02:00:18.648Z,24.30
2022-09-05T02:03:44.326Z,24.30
2022-09-05T02:06:49.242Z,24.30
2022-09-05T02:10:09.594Z,24.30
2022-09-05T02:13:36.423Z,24.30
2022-09-05T02:16:38.567Z,24.30
2022-09-05T02:19:51.513Z,24.30
2022-09-05T02:23:40.309Z,24.30
2022-09-05T02:26:51.192Z,24.30
2022-09-05T02:30:13.834Z,24.20
2022-09-05T02:33:32.733Z,24.30
2022-09-05T02:36:52.011Z,24.20
2022-09-05T02:45:04.136Z,24.20
2022-09-05T02:45:19.503Z,24.20
2022-09-05T02:47:22.514Z,24.20
2022-09-05T02:57:28.482Z,24.20
2022-09-05T02:57:35.087Z,24.20
2022-09-05T02:58:26.648Z,24.20
2022-09-05T03:01:55.613Z,24.20
2022-09-05T03:05:19.233Z,24.20
2022-09-05T03:08:35.838Z,24.20
2022-09-05T03:12:28.890Z,24.20
2022-09-05T03:15:44.818Z,24.20
2022-09-05T03:19:02.758Z,24.20
2022-09-05T03:22:43.229Z,24.20
2022-09-05T03:25:57.406Z,24.20
2022-09-05T03:29:21.226Z,24.20
2022-09-05T03:32:29.525Z,24.20
2022-09-05T03:35:53.550Z,24.20
2022-09-05T03:39:12.411Z,24.20
2022-09-05T03:42:45.053Z,24.20
2022-09-05T03:46:11.646Z,24.20
2022-09-05T03:50:18.691Z,24.20
2022-09-05T03:57:14.197Z,24.20
2022-09-05T03:57:32.333Z,24.20
2022-09-05T04:00:33.717Z,24.10
2022-09-05T04:08:09.077Z,24.10
2022-09-05T04:08:18.373Z,24.10
2022-09-05T04:11:14.048Z,24.10
2022-09-05T04:14:43.199Z,24.10
2022-09-05T04:18:03.785Z,24.10
2022-09-05T04:21:22.234Z,24.10
2022-09-05T04:24:45.354Z,24.10
2022-09-05T04:28:10.414Z,24.10
2022-09-05T04:31:22.361Z,24.10
2022-09-05T04:34:53.418Z,24.10
2022-09-05T04:38:16.420Z,24.10
2022-09-05T04:41:39.159Z,24.10
2022-09-05T04:45:07.365Z,24.10
2022-09-05T04:48:15.803Z,24.10
2022-09-05T04:55:16.476Z,24.10
2022-09-05T05:01:06.873Z,24.10
2022-09-05T05:06:10.495Z,24.00
2022-09-05T05:06:18.351Z,24.10
2022-09-05T05:09:19.700Z,24.10
2022-09-05T05:17:57.399Z,24.00
2022-09-05T05:18:14.996Z,24.10
2022-09-05T05:20:40.210Z,24.00
2022-09-05T05:23:29.219Z,24.10
2022-09-05T05:26:55.901Z,24.00
2022-09-05T05:30:08.719Z,24.00
2022-09-05T05:33:25.905Z,24.00
2022-09-05T05:36:33.472Z,24.00
2022-09-05T05:39:41.968Z,24.00
2022-09-05T05:42:46.180Z,24.00
2022-09-05T05:45:59.444Z,24.00
2022-09-05T05:49:30.959Z,24.00
2022-09-05T05:52:38.874Z,24.00
2022-09-05T05:56:02.264Z,24.00
2022-09-05T05:59:42.982Z,24.00
2022-09-05T06:03:26.877Z,24.00
2022-09-05T06:06:38.931Z,24.00
2022-09-05T06:14:55.724Z,24.00
2022-09-05T06:15:00.315Z,24.00
2022-09-05T06:17:15.699Z,24.00
2022-09-05T06:22:06.676Z,24.00
2022-09-05T06:24:29.430Z,24.00
2022-09-05T06:28:01.509Z,24.00
2022-09-05T06:31:29.943Z,24.00
2022-09-05T06:34:45.580Z,24.00
2022-09-05T06:38:02.485Z,24.00
2022-09-05T06:41:20.642Z,24.00
2022-09-05T06:44:26.251Z,24.00
2022-09-05T06:47:34.222Z,24.00
2022-09-05T06:51:07.054Z,24.00
2022-09-05T06:55:00.028Z,24.00
2022-09-05T06:58:20.348Z,24.00
2022-09-05T07:01:59.974Z,24.00
2022-09-05T07:05:38.024Z,24.00
2022-09-05T07:08:54.119Z,24.10
2022-09-05T07:12:05.533Z,24.00
2022-09-05T07:15:35.866Z,24.10
2022-09-05T07:19:26.962Z,24.10
2022-09-05T07:22:47.599Z,24.10
2022-09-05T07:25:54.477Z,24.10
2022-09-05T07:29:03.649Z,24.10
2022-09-05T07:32:08.633Z,24.10
2022-09-05T07:35:22.888Z,24.10
2022-09-05T07:38:52.052Z,24.10
2022-09-05T07:41:55.271Z,24.10
2022-09-05T07:45:04.694Z,24.10
2022-09-05T07:48:13.448Z,24.20
2022-09-05T07:56:46.084Z,24.20
2022-09-05T07:56:59.522Z,24.20
2022-09-05T07:58:19.888Z,24.20
2022-09-05T08:01:22.906Z,24.20
2022-09-05T08:04:37.680Z,24.20
2022-09-05T08:07:49.822Z,24.20
2022-09-05T08:11:24.906Z,24.20
2022-09-05T08:14:46.301Z,24.20
2022-09-05T08:18:07.100Z,24.30
2022-09-05T08:21:11.588Z,24.30
2022-09-05T08:24:32.785Z,24.30
2022-09-05T08:27:54.296Z,24.30
2022-09-05T08:31:06.856Z,24.30
2022-09-05T08:34:16.094Z,24.30
2022-09-05T08:37:23.550Z,24.30
2022-09-05T08:40:29.033Z,24.30
2022-09-05T08:46:35.340Z,24.30
2022-09-05T08:47:18.425Z,24.30
2022-09-05T08:50:29.509Z,24.40
2022-09-05T08:53:55.741Z,24.40
2022-09-05T08:57:35.651Z,24.40
2022-09-05T09:00:55.761Z,24.40
2022-09-05T09:04:26.725Z,24.40
2022-09-05T09:07:52.467Z,24.40
2022-09-05T09:11:20.760Z,24.50
2022-09-05T09:14:53.883Z,24.50
2022-09-05T09:17:56.602Z,24.50
2022-09-05T09:21:20.466Z,24.50
2022-09-05T09:25:14.756Z,24.50
2022-09-05T09:28:47.773Z,24.50
2022-09-05T09:32:13.741Z,24.50
2022-09-05T09:35:24.413Z,24.60
2022-09-05T09:39:37.411Z,24.50
2022-09-05T09:43:07.281Z,24.60
2022-09-05T09:46:19.382Z,24.60
2022-09-05T09:49:59.169Z,24.60
2022-09-05T09:53:29.848Z,24.60
2022-09-05T09:56:54.089Z,24.60
2022-09-05T10:00:07.740Z,24.60
2022-09-05T10:06:59.094Z,24.60
2022-09-05T10:10:51.339Z,24.60
2022-09-05T10:11:56.036Z,24.60
2022-09-05T10:15:25.916Z,24.70
2022-09-05T10:18:31.920Z,24.70
2022-09-05T10:22:34.117Z,24.70
2022-09-05T10:25:48.776Z,24.70
2022-09-05T10:29:30.250Z,24.70
2022-09-05T10:35:17.389Z,24.70
2022-09-05T10:36:39.274Z,24.70
2022-09-05T10:39:51.436Z,24.70
2022-09-05T10:43:01.437Z,24.70
2022-09-05T10:46:46.672Z,24.70
2022-09-05T10:49:45.364Z,24.70
2022-09-05T10:53:09.637Z,24.70
2022-09-05T10:56:23.566Z,24.70
2022-09-05T11:02:24.630Z,24.80
2022-09-05T11:03:01.548Z,24.80
2022-09-05T11:06:10.427Z,24.80
2022-09-05T11:09:18.771Z,24.80
2022-09-05T11:12:50.420Z,24.80
2022-09-05T11:16:27.130Z,24.80
2022-09-05T11:19:32.506Z,24.80
2022-09-05T11:22:40.624Z,24.80
2022-09-05T11:25:46.356Z,24.90
2022-09-05T11:29:01.216Z,24.90
2022-09-05T11:36:27.605Z,24.90
2022-09-05T11:40:09.883Z,24.90
2022-09-05T11:40:30.228Z,24.90
2022-09-05T11:43:37.713Z,24.90
2022-09-05T11:47:26.570Z,24.90
2022-09-05T11:50:42.942Z,24.90
2022-09-05T11:54:09.338Z,24.90
2022-09-05T11:57:33.933Z,24.90
2022-09-05T12:01:41.227Z,24.90
2022-09-05T12:04:43.118Z,24.90
2022-09-05T12:07:57.573Z,24.90
2022-09-05T12:11:05.691Z,24.90
2022-09-05T12:14:42.416Z,24.90
2022-09-05T12:18:04.187Z,24.90
2022-09-05T12:21:27.228Z,24.90
2022-09-05T12:27:36.942Z,24.90
2022-09-05T12:29:28.902Z,24.90
2022-09-05T12:34:23.534Z,24.90
2022-09-05T12:40:27.549Z,24.90
2022-09-05T12:41:38.351Z,25.00
2022-09-05T12:44:37.012Z,25.00
2022-09-05T12:46:26.412Z,25.00
2022-09-05T12:49:40.130Z,25.00
2022-09-05T12:53:12.599Z,25.00
2022-09-05T12:57:02.486Z,25.00
2022-09-05T13:03:01.482Z,25.00
2022-09-05T13:03:28.408Z,25.00
2022-09-05T13:06:31.935Z,25.00
2022-09-05T13:10:51.286Z,25.00
2022-09-05T13:14:47.398Z,25.00
2022-09-05T13:16:51.100Z,25.00
2022-09-05T13:19:54.965Z,24.90
2022-09-05T13:22:57.378Z,25.00
2022-09-05T13:26:10.293Z,25.00
2022-09-05T13:29:23.375Z,25.00
2022-09-05T13:38:03.850Z,25.00
2022-09-05T13:38:14.431Z,25.00
2022-09-05T13:39:52.679Z,25.00
2022-09-05T13:46:47.670Z,25.00
2022-09-05T13:50:16.801Z,25.00
2022-09-05T13:57:50.452Z,25.00
2022-09-05T14:01:23.165Z,25.00
2022-09-05T14:08:33.729Z,25.00
2022-09-05T14:11:41.158Z,25.00
2022-09-05T14:15:10.035Z,25.00
2022-09-05T14:18:30.191Z,25.00
2022-09-05T14:21:37.123Z,25.10
2022-09-05T14:43:17.471Z,25.10
2022-09-05T14:46:42.102Z,25.10
2022-09-05T14:49:57.877Z,25.00
2022-09-05T14:59:42.065Z,25.00
2022-09-05T15:02:49.218Z,25.10
2022-09-05T15:07:19.950Z,25.10
2022-09-05T15:12:14.704Z,25.10
2022-09-05T15:14:21.362Z,25.10
2022-09-05T15:17:26.337Z,25.10
2022-09-05T15:20:37.962Z,25.10
2022-09-05T15:23:40.363Z,25.10
2022-09-05T15:26:53.902Z,25.10
2022-09-05T15:29:57.852Z,25.10
2022-09-05T15:33:12.018Z,25.10
2022-09-05T15:36:30.685Z,25.10
2022-09-05T15:39:32.910Z,25.10
2022-09-05T15:42:38.941Z,25.10
2022-09-05T15:45:41.207Z,25.10
2022-09-05T15:48:55.841Z,25.10
2022-09-05T15:52:05.039Z,25.10
2022-09-05T15:55:26.353Z,25.10
2022-09-05T15:58:52.495Z,25.10
2022-09-05T16:01:59.662Z,25.10
2022-09-05T16:10:31.447Z,25.10
2022-09-05T16:10:41.288Z,25.10
2022-09-05T16:12:16.932Z,25.10
2022-09-05T16:19:23.432Z,25.10
2022-09-05T16:23:26.368Z,25.10
2022-09-05T16:23:38.038Z,25.10
2022-09-05T16:25:50.422Z,25.10
2022-09-05T16:29:26.085Z,25.10
2022-09-05T16:32:30.883Z,25.10
2022-09-05T16:35:42.125Z,25.10
2022-09-05T16:38:50.415Z,25.10
2022-09-05T16:41:59.111Z,25.10
2022-09-05T16:45:09.964Z,25.10
2022-09-05T16:48:22.871Z,25.10
2022-09-05T16:51:50.165Z,25.10
2022-09-05T16:58:50.208Z,25.10
2022-09-05T17:02:09.202Z,25.10
2022-09-05T17:05:38.978Z,25.10
2022-09-05T17:08:41.188Z,25.10
2022-09-05T17:12:00.024Z,25.10
2022-09-05T17:15:08.829Z,25.10
2022-09-05T17:18:22.412Z,25.10
2022-09-05T17:23:36.399Z,25.10
2022-09-05T17:29:34.487Z,25.10
2022-09-05T17:29:40.659Z,25.10
2022-09-05T17:32:19.008Z,25.10
2022-09-05T17:35:30.498Z,25.10
2022-09-05T17:39:06.436Z,25.10
2022-09-05T17:42:26.260Z,25.10
2022-09-05T17:45:47.434Z,25.10
2022-09-05T17:49:13.392Z,25.10
2022-09-05T17:52:18.342Z,25.10
2022-09-05T17:55:20.768Z,25.10
2022-09-05T17:58:30.526Z,25.10
2022-09-05T18:02:03.949Z,25.10
2022-09-05T18:05:08.967Z,25.10
2022-09-05T18:08:31.679Z,25.10
2022-09-05T18:12:02.359Z,25.10
2022-09-05T18:15:15.368Z,25.10
2022-09-05T18:19:28.555Z,25.10
2022-09-05T18:22:12.310Z,25.10
2022-09-05T18:25:28.137Z,25.10
2022-09-05T18:28:52.443Z,25.10
2022-09-05T18:31:55.428Z,25.10
2022-09-05T18:35:37.241Z,25.10
2022-09-05T18:38:50.939Z,25.10
2022-09-05T18:42:04.354Z,25.10
2022-09-05T18:45:28.262Z,25.10
2022-09-05T18:48:36.108Z,25.10
2022-09-05T18:51:53.265Z,25.10
2022-09-05T18:55:49.406Z,25.10
2022-09-05T18:58:31.562Z,25.10
2022-09-05T19:01:59.079Z,25.10
2022-09-05T19:05:13.517Z,25.10
2022-09-05T19:08:32.135Z,25.10
2022-09-05T19:11:38.266Z,25.10
2022-09-05T19:15:08.186Z,25.10
2022-09-05T19:18:26.020Z,25.10
2022-09-05T19:22:39.464Z,25.10
2022-09-05T19:25:35.994Z,25.10
2022-09-05T19:36:56.899Z,25.10
2022-09-05T19:37:05.620Z,25.10
2022-09-05T19:37:09.790Z,25.10
2022-09-05T19:41:39.883Z,25.00
2022-09-05T19:47:27.033Z,25.00
2022-09-05T19:47:43.031Z,25.00
2022-09-05T19:49:10.072Z,25.00
2022-09-05T19:52:16.749Z,25.00
2022-09-05T19:55:26.297Z,25.00
2022-09-05T19:58:28.883Z,25.00
2022-09-05T20:01:31.488Z,25.00
2022-09-05T20:04:44.292Z,25.00
2022-09-05T20:07:57.737Z,25.00
2022-09-05T20:11:05.610Z,25.00
2022-09-05T20:14:29.265Z,25.00
2022-09-05T20:17:34.607Z,25.00
2022-09-05T20:20:36.899Z,25.00
2022-09-05T20:23:49.479Z,24.90
2022-09-05T20:26:52.075Z,25.00
2022-09-05T20:29:56.463Z,25.00
2022-09-05T20:33:08.919Z,25.00
2022-09-05T20:43:07.616Z,24.90
2022-09-05T20:43:17.746Z,24.90
2022-09-05T20:43:37.434Z,25.00
2022-09-05T20:54:02.288Z,25.00
2022-09-05T20:54:19.678Z,25.00
2022-09-05T20:54:19.906Z,25.00
2022-09-05T20:57:20.128Z,25.00
2022-09-05T21:00:24.885Z,24.90
2022-09-05T21:03:36.748Z,24.90
2022-09-05T21:06:41.828Z,24.90
2022-09-05T21:09:57.581Z,24.90
2022-09-05T21:13:00.141Z,24.90
2022-09-05T21:16:13.026Z,24.90
2022-09-05T21:19:34.967Z,24.90
2022-09-05T21:22:43.706Z,24.90
2022-09-05T21:25:53.692Z,24.90
2022-09-05T21:29:08.228Z,24.90
2022-09-05T21:32:13.788Z,24.90
2022-09-05T21:35:34.406Z,24.90
2022-09-05T21:38:42.260Z,24.90
2022-09-05T21:41:47.461Z,24.90
2022-09-05T21:47:41.629Z,24.90
2022-09-05T21:48:16.352Z,24.90
2022-09-05T21:51:27.599Z,24.90
2022-09-05T21:59:18.832Z,24.90
2022-09-05T21:59:33.207Z,24.90
2022-09-05T22:01:14.334Z,24.90
2022-09-05T22:04:17.689Z,24.90
2022-09-05T22:07:32.476Z,24.90
2022-09-05T22:10:51.903Z,24.90
2022-09-05T22:13:58.419Z,24.90
2022-09-05T22:17:01.572Z,24.90
2022-09-05T22:20:07.289Z,24.90
2022-09-05T22:23:10.249Z,24.90
2022-09-05T22:26:13.977Z,24.90
2022-09-05T22:29:16.697Z,24.90
2022-09-05T22:32:34.028Z,24.90
2022-09-05T22:35:39.173Z,24.90
2022-09-05T22:38:44.096Z,24.90
2022-09-05T22:41:46.430Z,24.90
2022-09-05T22:44:48.623Z,24.90
2022-09-05T22:47:51.115Z,24.90
2022-09-05T22:51:06.583Z,24.90
2022-09-05T22:54:08.708Z,24.90
2022-09-05T22:57:10.962Z,24.90
2022-09-05T23:00:13.795Z,24.90
2022-09-05T23:03:16.164Z,24.80
2022-09-05T23:06:18.307Z,24.80
2022-09-05T23:09:20.774Z,24.80
2022-09-05T23:12:22.962Z,24.80
2022-09-05T23:15:26.108Z,24.80
2022-09-05T23:18:32.348Z,24.80
2022-09-05T23:21:35.101Z,24.80
2022-09-05T23:24:37.262Z,24.80
2022-09-05T23:27:39.509Z,24.80
2022-09-05T23:30:41.848Z,24.80
2022-09-05T23:33:44.108Z,24.80
2022-09-05T23:36:46.439Z,24.80
2022-09-05T23:39:49.345Z,24.80
2022-09-05T23:42:54.961Z,24.80
2022-09-05T23:45:57.415Z,24.80
2022-09-05T23:48:59.607Z,24.80
2022-09-05T23:52:01.920Z,24.80
2022-09-05T23:55:04.559Z,24.80
2022-09-05T23:58:06.709Z,24.80
